createdAt,value
2018-05-06T00:00:39.836Z,21.23
2018-05-06T00:03:08.836Z,18.30
2018-05-06T00:05:37.933Z,27.93
2018-05-06T00:08:06.872Z,27.27
2018-05-06T00:10:35.668Z,20.13
2018-05-06T00:13:07.887Z,34.33
2018-05-06T00:15:36.881Z,26.00
2018-05-06T00:18:05.880Z,27.90
2018-05-06T00:20:34.908Z,26.33
2018-05-06T00:23:04.011Z,24.60
2018-05-06T00:25:32.816Z,34.93
2018-05-06T00:28:02.584Z,39.63
2018-05-06T00:30:32.272Z,29.83
2018-05-06T00:33:01.172Z,39.57
2018-05-06T00:35:30.169Z,34.80
2018-05-06T00:37:59.160Z,27.70
2018-05-06T00:40:28.050Z,34.70
2018-05-06T00:42:58.004Z,30.20
2018-05-06T00:45:26.957Z,32.97
2018-05-06T00:47:55.863Z,38.10
2018-05-06T00:50:24.830Z,34.27
2018-05-06T00:52:53.738Z,37.83
2018-05-06T00:55:22.558Z,31.00
2018-05-06T00:57:51.626Z,28.43
2018-05-06T01:00:23.017Z,23.13
2018-05-06T01:02:51.965Z,25.50
2018-05-06T01:05:26.526Z,34.07
2018-05-06T01:07:55.563Z,26.10
2018-05-06T01:10:25.598Z,23.40
2018-05-06T01:12:55.725Z,31.80
2018-05-06T01:15:24.647Z,28.60
2018-05-06T01:17:54.654Z,23.23
2018-05-06T01:20:23.631Z,33.10
2018-05-06T01:22:52.522Z,22.10
2018-05-06T01:25:21.618Z,17.67
2018-05-06T01:27:50.613Z,21.47
2018-05-06T01:30:19.604Z,16.87
2018-05-06T01:35:22.299Z,24.90
2018-05-06T01:37:51.160Z,18.07
2018-05-06T01:40:20.942Z,22.20
2018-05-06T01:42:50.003Z,14.70
2018-05-06T01:45:18.892Z,19.30
2018-05-06T01:47:47.992Z,13.83
2018-05-06T01:50:16.982Z,17.77
2018-05-06T01:52:45.992Z,15.67
2018-05-06T01:55:16.823Z,21.33
2018-05-06T01:57:46.612Z,19.03
2018-05-06T02:00:15.520Z,11.13
2018-05-06T02:05:18.462Z,12.40
2018-05-06T02:07:47.362Z,19.90
2018-05-06T02:10:17.220Z,13.57
2018-05-06T02:12:46.331Z,10.90
2018-05-06T02:15:15.322Z,16.37
2018-05-06T02:17:44.190Z,15.90
2018-05-06T02:20:13.110Z,14.40
2018-05-06T02:22:42.005Z,9.40
2018-05-06T02:25:11.405Z,11.70
2018-05-06T02:27:40.919Z,18.53
2018-05-06T02:30:09.746Z,13.30
2018-05-06T02:32:38.695Z,13.80
2018-05-06T02:35:07.715Z,12.60
2018-05-06T02:37:36.580Z,8.30
2018-05-06T02:40:07.324Z,13.33
2018-05-06T02:42:36.211Z,15.20
2018-05-06T02:45:05.115Z,14.00
2018-05-06T02:47:34.118Z,9.47
2018-05-06T02:50:03.084Z,12.73
2018-05-06T02:52:32.081Z,16.40
2018-05-06T02:55:01.016Z,17.87
2018-05-06T02:57:30.067Z,16.90
2018-05-06T02:59:59.049Z,21.80
2018-05-06T03:02:31.204Z,6.83
2018-05-06T03:05:00.224Z,10.97
2018-05-06T03:07:29.114Z,20.20
2018-05-06T03:09:58.109Z,15.43
2018-05-06T03:12:28.024Z,5.23
2018-05-06T03:14:56.989Z,7.23
2018-05-06T03:19:59.927Z,11.43
2018-05-06T03:22:28.920Z,11.43
2018-05-06T03:24:58.217Z,9.10
2018-05-06T03:27:27.112Z,12.43
2018-05-06T03:29:56.000Z,16.10
2018-05-06T03:32:27.062Z,11.60
2018-05-06T03:34:57.007Z,14.40
2018-05-06T03:37:25.951Z,8.43
2018-05-06T03:39:54.942Z,9.03
2018-05-06T03:42:23.935Z,11.70
2018-05-06T03:44:53.036Z,7.30
2018-05-06T03:47:22.031Z,9.10
2018-05-06T03:49:50.913Z,17.27
2018-05-06T03:52:19.810Z,16.03
2018-05-06T03:54:48.797Z,12.77
2018-05-06T03:57:29.578Z,15.20
2018-05-06T04:00:11.888Z,8.40
2018-05-06T04:02:40.955Z,11.43
2018-05-06T04:05:09.815Z,11.93
2018-05-06T04:07:39.525Z,8.60
2018-05-06T04:10:09.392Z,10.30
2018-05-06T04:12:38.390Z,23.07
2018-05-06T04:17:42.343Z,10.90
2018-05-06T04:20:11.305Z,18.20
2018-05-06T04:22:40.299Z,11.80
2018-05-06T04:27:43.385Z,9.63
2018-05-06T04:30:12.323Z,16.50
2018-05-06T04:32:41.164Z,14.73
2018-05-06T04:35:12.010Z,12.83
2018-05-06T04:37:40.929Z,11.90
2018-05-06T04:40:09.719Z,5.63
2018-05-06T04:42:39.385Z,9.30
2018-05-06T04:45:08.165Z,5.47
2018-05-06T04:47:36.947Z,11.63
2018-05-06T04:52:39.474Z,11.33
2018-05-06T04:55:08.312Z,10.13
2018-05-06T04:57:37.143Z,20.63
2018-05-06T05:00:06.007Z,12.43
2018-05-06T05:02:34.834Z,18.63
2018-05-06T05:05:04.512Z,15.60
2018-05-06T05:07:33.258Z,18.40
2018-05-06T05:10:02.067Z,10.13
2018-05-06T05:12:33.660Z,13.20
2018-05-06T05:15:02.508Z,17.03
2018-05-06T05:17:31.300Z,16.87
2018-05-06T05:20:00.991Z,12.60
2018-05-06T05:22:29.807Z,10.10
2018-05-06T05:25:01.057Z,11.63
2018-05-06T05:27:33.929Z,15.30
2018-05-06T05:30:04.332Z,19.10
2018-05-06T05:32:33.480Z,10.57
2018-05-06T05:35:02.343Z,12.80
2018-05-06T05:37:31.066Z,13.97
2018-05-06T05:40:00.036Z,15.63
2018-05-06T05:42:28.894Z,12.70
2018-05-06T05:44:57.705Z,12.03
2018-05-06T05:47:26.506Z,12.37
2018-05-06T05:49:55.339Z,14.70
2018-05-06T05:52:24.120Z,7.43
2018-05-06T05:54:52.924Z,9.77
2018-05-06T05:57:22.621Z,19.17
2018-05-06T05:59:51.389Z,19.50
2018-05-06T06:02:20.144Z,10.37
2018-05-06T06:04:49.021Z,9.83
2018-05-06T06:07:17.944Z,7.50
2018-05-06T06:09:46.796Z,10.77
2018-05-06T06:12:15.599Z,15.23
2018-05-06T06:14:44.407Z,12.43
2018-05-06T06:17:13.203Z,7.37
2018-05-06T06:19:42.040Z,11.70
2018-05-06T06:22:10.853Z,10.27
2018-05-06T06:24:39.669Z,10.20
2018-05-06T06:27:08.504Z,12.60
2018-05-06T06:29:37.262Z,13.17
2018-05-06T06:32:06.074Z,7.93
2018-05-06T06:34:35.772Z,19.23
2018-05-06T06:37:04.575Z,12.23
2018-05-06T06:39:33.343Z,12.43
2018-05-06T06:42:02.169Z,16.90
2018-05-06T06:44:31.038Z,15.63
2018-05-06T06:46:59.987Z,17.13
2018-05-06T06:49:28.808Z,9.90
2018-05-06T06:51:57.584Z,12.73
2018-05-06T06:54:26.373Z,17.87
2018-05-06T06:56:55.307Z,12.40
2018-05-06T06:59:24.103Z,8.20
2018-05-06T07:01:53.017Z,14.93
2018-05-06T07:04:23.570Z,13.93
2018-05-06T07:06:52.347Z,12.57
2018-05-06T07:09:21.125Z,11.10
2018-05-06T07:14:24.075Z,10.93
2018-05-06T07:16:52.936Z,11.90
2018-05-06T07:19:22.664Z,10.87
2018-05-06T07:21:51.480Z,15.03
2018-05-06T07:24:20.275Z,13.80
